Time;durP1;ratioP1;P1;durP2;ratioP2;P2;SDS_P1;SDS_P2;PMS_P1;PMS_P2;Temp;Humidity;BMP_temperature;BMP_pressure;BME280_temperature;BME280_humidity;BME280_pressure;Samples;Min_cycle;Max_cycle;Signal;HPM_P1;HPM_P2
2022/02/08 00:01:20;;;;;;;;;13.00;7.00;;;;;8.61;63.79;102362.84;4900640;29;45342;-64
2022/02/08 00:03:46;;;;;;;;;7.50;7.50;;;;;8.64;63.71;102362.84;4907504;28;46886;-67
2022/02/08 00:08:55;;;;;;;;;10.25;9.50;;;;;8.71;64.23;102350.59;4920426;28;45366;-65
2022/02/08 00:11:21;;;;;;;;;11.50;9.00;;;;;8.76;63.58;102357.56;4920086;28;45435;-65
2022/02/08 00:13:46;;;;;;;;;9.75;8.75;;;;;8.79;63.96;102359.31;4920057;28;45912;-63
2022/02/08 00:16:12;;;;;;;;;10.00;9.00;;;;;8.81;63.81;102359.28;4920212;28;45326;-64
2022/02/08 00:18:37;;;;;;;;;6.00;6.00;;;;;8.82;63.99;102356.66;4918637;28;45349;-64
2022/02/08 00:21:02;;;;;;;;;11.00;7.50;;;;;8.82;63.92;102356.66;4919692;28;45564;-65
2022/02/08 00:23:27;;;;;;;;;12.75;9.00;;;;;8.82;64.13;102351.41;4919381;28;45215;-64
2022/02/08 00:25:53;;;;;;;;;12.50;10.00;;;;;8.89;63.88;102349.63;4919493;28;45315;-66
2022/02/08 00:28:18;;;;;;;;;13.50;11.50;;;;;8.89;63.77;102342.63;4920544;28;45376;-65
2022/02/08 00:30:44;;;;;;;;;11.50;9.50;;;;;8.93;64.07;102351.34;4924063;28;45349;-65
2022/02/08 00:33:09;;;;;;;;;12.50;10.25;;;;;8.95;63.32;102348.72;4921840;28;46458;-64
2022/02/08 00:35:35;;;;;;;;;14.50;11.25;;;;;8.93;63.88;102338.22;4920988;28;45313;-65
2022/02/08 00:38:00;;;;;;;;;12.75;9.00;;;;;8.95;63.88;102348.72;4921691;28;45374;-66
2022/02/08 00:40:27;;;;;;;;;15.25;11.75;;;;;8.97;63.89;102353.06;4924560;28;45492;-65
2022/02/08 00:42:52;;;;;;;;;12.75;12.25;;;;;8.98;64.25;102351.34;4924327;28;46375;-65
2022/02/08 00:45:33;;;;;;;;;18.50;12.50;;;;;8.96;63.97;102348.72;4920250;28;45421;-66
2022/02/08 00:48:29;;;;;;;;;16.00;13.75;;;;;8.98;64.18;102352.19;4920298;28;45188;-66
2022/02/08 00:50:50;;;;;;;;;12.75;11.00;;;;;8.98;64.06;102353.97;4919896;28;45392;-65
2022/02/08 00:53:16;;;;;;;;;14.00;12.25;;;;;8.98;63.91;102346.94;4919650;28;45351;-65
2022/02/08 00:55:42;;;;;;;;;15.25;11.00;;;;;8.99;63.90;102345.22;4921268;28;45346;-66
2022/02/08 00:58:07;;;;;;;;;16.50;13.00;;;;;8.99;64.37;102348.69;4922814;28;45341;-65
2022/02/08 01:00:35;;;;;;;;;20.25;14.75;;;;;8.99;63.80;102343.44;4922488;28;45517;-65
2022/02/08 01:03:01;;;;;;;;;19.00;16.00;;;;;9.00;64.00;102344.34;4921790;28;47155;-66
2022/02/08 01:05:26;;;;;;;;;14.75;12.25;;;;;8.95;63.99;102336.47;4918885;28;45257;-64
2022/02/08 01:07:52;;;;;;;;;26.25;15.50;;;;;9.01;64.14;102341.72;4919577;28;45491;-64
2022/02/08 01:10:19;;;;;;;;;18.25;14.00;;;;;9.04;64.18;102346.06;4907164;28;45344;-66
2022/02/08 01:12:47;;;;;;;;;21.50;16.50;;;;;9.05;64.32;102353.06;4899508;28;46907;-65
2022/02/08 01:15:14;;;;;;;;;14.50;11.00;;;;;9.04;64.33;102349.56;4900290;28;45242;-65
2022/02/08 01:17:40;;;;;;;;;17.25;14.25;;;;;9.02;64.38;102347.81;4902095;28;45240;-64
2022/02/08 01:20:11;;;;;;;;;19.00;13.75;;;;;9.05;64.25;102353.06;4908607;29;45192;-66
2022/02/08 01:22:40;;;;;;;;;13.75;10.00;;;;;9.05;64.59;102350.44;4903716;29;46100;-65
2022/02/08 01:25:08;;;;;;;;;22.00;15.25;;;;;9.03;64.67;102349.56;4900132;28;45256;-65
2022/02/08 01:27:40;;;;;;;;;17.50;11.75;;;;;9.03;65.02;102354.81;4899209;28;45312;-66
2022/02/08 01:30:14;;;;;;;;;22.75;20.25;;;;;9.02;64.05;102367.09;4915157;28;45465;-65
2022/02/08 01:33:14;;;;;;;;;41.00;33.25;;;;;9.03;64.65;102362.69;4899932;28;45480;-65
2022/02/08 01:38:06;;;;;;;;;20.25;17.25;;;;;9.06;64.49;102363.56;4901464;28;45192;-65
2022/02/08 01:40:49;;;;;;;;;8.50;6.50;;;;;9.07;64.35;102367.03;4902134;28;45430;-65
2022/02/08 01:48:52;;;;;;;;;14.75;11.25;;;;;9.10;64.32;102372.28;4901386;29;45362;-64
2022/02/08 01:51:17;;;;;;;;;22.00;17.50;;;;;9.09;64.56;102364.44;4900226;28;45274;-65
2022/02/08 01:53:43;;;;;;;;;31.50;26.00;;;;;9.09;64.40;102372.31;4899941;29;46124;-65
2022/02/08 01:56:09;;;;;;;;;14.50;14.00;;;;;9.06;64.53;102366.19;4899864;29;45421;-65
2022/02/08 01:58:35;;;;;;;;;17.50;14.00;;;;;9.08;64.30;102368.78;4900136;28;45450;-66
2022/02/08 02:01:00;;;;;;;;;14.25;11.25;;;;;9.05;64.23;102364.44;4914353;28;45437;-65
2022/02/08 02:03:26;;;;;;;;;23.25;19.25;;;;;9.09;64.26;102364.44;4903352;29;46365;-64
2022/02/08 02:05:52;;;;;;;;;12.50;11.50;;;;;9.10;64.44;102363.53;4900302;28;45311;-66
2022/02/08 02:08:18;;;;;;;;;12.00;9.75;;;;;9.10;64.42;102369.66;4900946;29;45399;-64
2022/02/08 02:10:43;;;;;;;;;21.75;18.00;;;;;9.11;64.40;102370.53;4902629;28;45241;-67
2022/02/08 02:13:22;;;;;;;;;14.25;10.00;;;;;9.12;64.76;102372.28;4899856;28;46255;-65
2022/02/08 02:15:47;;;;;;;;;14.25;11.25;;;;;9.06;64.64;102360.94;4899439;29;45247;-64
2022/02/08 02:18:13;;;;;;;;;12.50;8.25;;;;;9.14;64.98;102367.91;4900115;28;45440;-66
2022/02/08 02:20:38;;;;;;;;;16.50;12.00;;;;;9.16;64.74;102361.75;4907087;28;45453;-64
2022/02/08 02:23:03;;;;;;;;;11.50;10.25;;;;;9.17;64.72;102366.13;4919399;28;46104;-64
2022/02/08 02:25:32;;;;;;;;;10.00;9.25;;;;;9.16;64.66;102364.38;4921087;28;45605;-67
2022/02/08 02:28:01;;;;;;;;;18.75;13.00;;;;;9.17;64.66;102367.88;4921733;28;45427;-66
2022/02/08 02:30:27;;;;;;;;;18.25;14.50;;;;;9.16;64.82;102363.50;4924829;28;45253;-65
2022/02/08 02:32:53;;;;;;;;;18.25;14.00;;;;;9.15;64.97;102360.00;4921542;28;47478;-64
2022/02/08 02:35:19;;;;;;;;;15.75;12.75;;;;;9.13;64.94;102367.00;4924148;28;45291;-64
2022/02/08 02:37:44;;;;;;;;;15.25;10.75;;;;;9.11;65.16;102367.91;4924742;28;45443;-65
2022/02/08 02:40:13;;;;;;;;;13.25;9.75;;;;;9.04;64.84;102349.56;4925071;28;45535;-66
2022/02/08 02:42:38;;;;;;;;;13.00;10.75;;;;;9.08;65.01;102353.03;4925806;28;46383;-65
2022/02/08 02:45:06;;;;;;;;;10.75;5.00;;;;;9.06;65.13;102355.69;4924210;28;45270;-67
2022/02/08 02:47:31;;;;;;;;;14.75;12.00;;;;;9.05;65.25;102353.06;4925531;28;44717;-65
2022/02/08 02:49:56;;;;;;;;;13.00;12.00;;;;;9.03;64.92;102354.81;4925900;28;45244;-67
2022/02/08 02:52:22;;;;;;;;;16.75;12.25;;;;;9.05;65.06;102353.06;4927586;28;45377;-65
2022/02/08 02:54:48;;;;;;;;;17.25;15.25;;;;;9.05;65.14;102351.31;4923000;28;45253;-66
2022/02/08 02:57:15;;;;;;;;;16.50;12.25;;;;;9.05;65.28;102355.69;4925473;28;45286;-65
2022/02/08 02:59:42;;;;;;;;;12.50;10.75;;;;;9.02;65.39;102345.19;4923162;28;45397;-65
2022/02/08 03:18:47;;;;;;;;;13.75;12.00;;;;;9.05;65.20;102355.69;4921358;28;45374;-65
2022/02/08 03:20:48;;;;;;;;;16.25;10.00;;;;;8.98;65.13;102353.97;4908575;28;45392;-66
2022/02/08 03:23:16;;;;;;;;;14.25;12.00;;;;;8.91;65.28;102350.47;4921008;28;46272;-64
2022/02/08 03:25:42;;;;;;;;;11.50;10.00;;;;;8.86;65.61;102347.00;4920898;28;45421;-64
2022/02/08 03:28:08;;;;;;;;;12.25;10.50;;;;;8.86;65.88;102347.00;4921065;28;45434;-65
2022/02/08 03:30:34;;;;;;;;;18.50;12.00;;;;;8.84;65.86;102346.16;4920820;28;45275;-64
2022/02/08 03:32:59;;;;;;;;;16.75;12.75;;;;;8.85;65.73;102356.66;4920758;28;45323;-67
2022/02/08 03:35:24;;;;;;;;;12.75;11.00;;;;;8.85;65.60;102354.03;4924088;28;45213;-65
2022/02/08 03:37:58;;;;;;;;;12.50;9.25;;;;;8.86;65.78;102358.41;4921992;28;45346;-64
2022/02/08 03:43:46;;;;;;;;;11.00;10.25;;;;;8.86;65.86;102355.78;4920519;28;45266;-66
2022/02/08 03:45:55;;;;;;;;;14.25;10.25;;;;;8.81;65.89;102357.53;4915781;28;45315;-65
2022/02/08 03:48:24;;;;;;;;;14.25;10.75;;;;;8.81;66.24;102357.53;4921629;28;45378;-66
2022/02/08 03:50:54;;;;;;;;;24.75;19.25;;;;;8.82;66.01;102371.53;4921996;28;45596;-64
2022/02/08 03:53:21;;;;;;;;;13.00;10.00;;;;;8.79;66.33;102361.94;4920415;28;47098;-65
2022/02/08 03:55:48;;;;;;;;;10.25;6.75;;;;;8.78;66.62;102365.44;4921242;28;45377;-65
2022/02/08 03:58:13;;;;;;;;;14.50;10.50;;;;;8.74;67.01;102363.69;4926559;28;45363;-64
2022/02/08 04:00:56;;;;;;;;;13.75;11.00;;;;;8.80;66.75;102368.91;4922284;28;45465;-65
2022/02/08 04:03:24;;;;;;;;;10.00;10.00;;;;;8.82;66.59;102358.41;4920249;28;45505;-64
2022/02/08 04:05:51;;;;;;;;;14.00;8.25;;;;;8.83;67.35;102362.78;4918056;28;45609;-64
2022/02/08 04:08:18;;;;;;;;;10.25;8.75;;;;;8.87;67.31;102368.00;4908497;28;45353;-65
2022/02/08 04:10:44;;;;;;;;;14.25;10.75;;;;;8.88;67.46;102364.50;4920961;28;45637;-65
2022/02/08 04:13:22;;;;;;;;;8.50;8.50;;;;;8.89;67.52;102368.00;4920644;28;46931;-65
2022/02/08 04:19:10;;;;;;;;;13.50;11.00;;;;;8.89;68.36;102365.38;4877511;28;45495;-64
2022/02/08 04:33:02;;;;;;;;;10.00;8.00;;;;;8.89;68.93;102366.25;4909863;28;45347;-64
2022/02/08 04:50:24;;;;;;;;;10.00;8.50;;;;;8.92;70.06;102362.72;4920206;28;45282;-64
2022/02/08 04:52:55;;;;;;;;;9.50;7.75;;;;;8.93;69.89;102359.22;4919544;28;45557;-66
2022/02/08 04:57:53;;;;;;;;;5.50;5.00;;;;;8.96;70.36;102367.09;4920072;28;45308;-66
2022/02/08 05:00:32;;;;;;;;;10.50;7.25;;;;;8.96;70.37;102355.72;4919715;28;45295;-64
2022/02/08 05:43:37;;;;;;;;;9.25;8.00;;;;;9.19;72.43;102371.38;4919281;28;45291;-66
2022/02/08 05:48:44;;;;;;;;;11.00;8.25;;;;;9.19;72.03;102366.13;4919420;28;46164;-65
2022/02/08 05:51:17;;;;;;;;;8.50;8.25;;;;;9.19;72.06;102366.97;4920494;28;45390;-64
2022/02/08 05:53:44;;;;;;;;;12.50;10.75;;;;;9.20;72.68;102352.09;4921975;28;45284;-64
2022/02/08 05:56:10;;;;;;;;;10.00;7.25;;;;;9.21;72.31;102359.97;4920906;28;45777;-65
2022/02/08 05:58:37;;;;;;;;;13.50;9.25;;;;;9.21;72.80;102348.59;4921460;28;46896;-68
2022/02/08 06:01:03;;;;;;;;;11.50;7.25;;;;;9.23;72.99;102352.09;4922103;28;45465;-64
2022/02/08 06:03:28;;;;;;;;;10.00;9.25;;;;;9.22;73.12;102345.09;4921789;28;45437;-65
2022/02/08 06:05:53;;;;;;;;;10.00;10.00;;;;;9.25;73.17;102349.44;4922458;28;45321;-65
2022/02/08 06:08:19;;;;;;;;;5.50;5.00;;;;;9.26;74.00;102340.69;4921931;28;45862;-65
2022/02/08 06:11:02;;;;;;;;;7.00;6.75;;;;;9.21;74.17;102336.31;4922040;28;45408;-65
2022/02/08 06:13:29;;;;;;;;;9.75;8.75;;;;;9.26;73.87;102349.44;4922795;28;45337;-64
2022/02/08 06:16:01;;;;;;;;;9.00;8.00;;;;;9.26;74.12;102346.81;4922023;28;45493;-66
2022/02/08 06:18:30;;;;;;;;;4.00;0.00;;;;;9.30;74.47;102352.91;4923619;28;45476;-66
2022/02/08 06:20:57;;;;;;;;;12.00;7.50;;;;;9.31;74.87;102349.41;4926447;28;45319;-65
2022/02/08 06:23:22;;;;;;;;;11.00;6.50;;;;;9.31;74.69;102349.41;4921563;28;45475;-64
2022/02/08 06:25:48;;;;;;;;;8.00;6.50;;;;;9.32;75.06;102343.25;4920822;28;45432;-64
2022/02/08 06:28:14;;;;;;;;;6.00;6.00;;;;;9.33;75.36;102347.63;4921295;28;45375;-64
2022/02/08 06:30:39;;;;;;;;;8.00;8.00;;;;;9.34;75.40;102355.50;4921437;28;45279;-65
2022/02/08 06:33:06;;;;;;;;;9.25;6.50;;;;;9.36;75.42;102350.25;4921525;28;45377;-64
2022/02/08 06:35:33;;;;;;;;;8.50;7.00;;;;;9.37;75.69;102359.84;4922598;28;45507;-66
2022/02/08 06:38:00;;;;;;;;;7.25;7.25;;;;;9.38;75.91;102353.72;4923221;28;47124;-66
2022/02/08 06:40:25;;;;;;;;;16.00;14.25;;;;;9.40;76.04;102366.88;4922267;28;45228;-66
2022/02/08 06:42:51;;;;;;;;;8.00;7.25;;;;;9.39;75.62;102365.97;4922075;28;45338;-67
2022/02/08 06:45:17;;;;;;;;;7.25;7.00;;;;;9.39;75.92;102367.75;4920840;28;45631;-65
2022/02/08 06:47:46;;;;;;;;;11.00;7.50;;;;;9.40;76.05;102370.34;4920981;28;46664;-70
2022/02/08 06:50:12;;;;;;;;;10.50;7.00;;;;;9.38;76.39;102374.75;4919984;28;45427;-67
2022/02/08 06:52:38;;;;;;;;;8.50;7.00;;;;;9.39;76.52;102375.63;4921441;28;45490;-66
2022/02/08 06:55:05;;;;;;;;;7.75;7.25;;;;;9.40;76.28;102370.34;4921478;28;45441;-71
2022/02/08 06:57:37;;;;;;;;;7.25;7.25;;;;;9.38;76.62;102372.09;4921947;28;47146;-68
2022/02/08 07:00:05;;;;;;;;;7.75;7.75;;;;;9.41;76.89;102379.13;4920885;28;45346;-68
2022/02/08 07:02:30;;;;;;;;;10.75;9.00;;;;;9.36;76.64;102371.25;4920572;28;46206;-66
2022/02/08 07:04:55;;;;;;;;;8.00;6.75;;;;;9.45;76.93;102383.47;4920657;28;45366;-69
2022/02/08 07:07:21;;;;;;;;;7.25;6.75;;;;;9.46;76.83;102386.06;4920174;28;45232;-68
2022/02/08 07:09:46;;;;;;;;;10.00;6.25;;;;;9.45;76.82;102379.06;4919797;28;45397;-67
2022/02/08 07:12:12;;;;;;;;;7.00;7.00;;;;;9.46;76.82;102388.69;4921246;28;45301;-67
2022/02/08 07:14:39;;;;;;;;;4.50;4.50;;;;;9.47;76.83;102389.56;4921470;28;45513;-68
2022/02/08 07:17:05;;;;;;;;;7.75;6.75;;;;;9.46;77.25;102396.56;4919226;28;47100;-67
2022/02/08 07:19:30;;;;;;;;;11.25;10.75;;;;;9.44;77.54;102387.81;4919123;28;45428;-67
2022/02/08 07:21:55;;;;;;;;;6.50;6.50;;;;;9.47;77.23;102389.56;4920400;28;45266;-66
2022/02/08 07:24:21;;;;;;;;;10.25;8.75;;;;;9.47;77.25;102393.06;4923113;28;45480;-66
2022/02/08 07:26:47;;;;;;;;;10.00;6.75;;;;;9.50;77.19;102397.44;4920492;28;45421;-66
2022/02/08 07:29:14;;;;;;;;;4.50;4.50;;;;;9.51;77.17;102404.44;4919946;28;45491;-65
2022/02/08 07:31:49;;;;;;;;;8.00;8.00;;;;;9.42;77.33;102394.84;4920529;28;45250;-66
2022/02/08 07:36:47;;;;;;;;;5.75;5.50;;;;;9.48;77.08;102409.72;4920653;28;45382;-67
2022/02/08 07:39:23;;;;;;;;;12.25;11.50;;;;;9.52;77.24;102415.81;4920204;28;45434;-67
2022/02/08 07:41:48;;;;;;;;;11.75;11.25;;;;;9.49;77.28;102412.31;4920572;28;45187;-67
2022/02/08 07:44:14;;;;;;;;;19.50;15.50;;;;;9.58;77.56;102418.41;4920479;28;45317;-70
2022/02/08 07:46:39;;;;;;;;;20.00;14.75;;;;;9.61;77.31;102416.63;4919884;28;45368;-67
2022/02/08 07:49:05;;;;;;;;;12.00;7.25;;;;;9.65;77.36;102407.00;4919971;28;45224;-66
2022/02/08 07:51:33;;;;;;;;;7.25;7.00;;;;;9.69;77.29;102408.72;4920820;28;45402;-66
2022/02/08 07:54:03;;;;;;;;;11.00;9.50;;;;;9.72;77.11;102408.69;4922484;28;45454;-67
2022/02/08 07:56:28;;;;;;;;;16.25;11.00;;;;;9.74;77.28;102406.03;4925666;28;46372;-67
2022/02/08 07:58:55;;;;;;;;;9.75;8.00;;;;;9.77;76.97;102403.38;4923661;28;45288;-66
2022/02/08 08:01:21;;;;;;;;;9.50;8.75;;;;;9.78;77.15;102399.88;4917768;28;45668;-66
2022/02/08 08:03:46;;;;;;;;;9.75;8.00;;;;;9.84;76.89;102410.34;4919722;28;45457;-66
2022/02/08 08:06:14;;;;;;;;;13.00;11.00;;;;;9.84;76.66;102402.44;4917436;28;47100;-63
2022/02/08 08:08:40;;;;;;;;;8.25;7.25;;;;;9.87;76.61;102406.81;4913294;28;45433;-66
2022/02/08 08:11:20;;;;;;;;;10.25;8.00;;;;;9.89;76.91;102397.16;4921639;28;45501;-67
2022/02/08 08:13:53;;;;;;;;;15.00;11.75;;;;;9.70;76.77;102355.28;4919799;28;45339;-68
2022/02/08 08:16:57;;;;;;;;;18.75;13.25;;;;;9.97;76.61;102397.09;4920523;28;45338;-66
2022/02/08 08:21:37;;;;;;;;;17.50;11.25;;;;;10.01;76.21;102386.53;4918598;28;45314;-67
2022/02/08 08:24:04;;;;;;;;;11.50;9.00;;;;;10.09;76.26;102403.13;4919702;28;45487;-67
2022/02/08 08:26:31;;;;;;;;;11.50;10.00;;;;;10.13;76.10;102390.84;4918707;28;46237;-69
2022/02/08 08:28:57;;;;;;;;;46.00;37.75;;;;;10.16;76.64;102387.28;4919064;28;45938;-67
2022/02/08 08:31:23;;;;;;;;;14.50;11.50;;;;;10.24;76.24;102395.97;4918936;28;45322;-68
2022/02/08 08:33:48;;;;;;;;;22.00;18.75;;;;;10.29;75.81;102391.53;4918308;28;45596;-68
2022/02/08 08:36:17;;;;;;;;;23.50;16.00;;;;;10.30;75.06;102400.31;4915802;28;46771;-76
2022/02/08 08:38:42;;;;;;;;;18.50;12.25;;;;;10.36;74.67;102401.13;4918496;28;45390;-65
2022/02/08 08:41:20;;;;;;;;;13.00;11.00;;;;;10.38;74.74;102395.84;4917681;28;45780;-72
2022/02/08 08:51:46;;;;;;;;;14.25;13.00;;;;;10.51;74.29;102399.25;4925009;28;45357;-68
2022/02/08 08:54:13;;;;;;;;;11.00;10.25;;;;;10.54;73.53;102403.63;4920059;28;45450;-65
2022/02/08 08:56:40;;;;;;;;;14.50;11.25;;;;;10.54;73.67;102404.47;4922716;28;46250;-65
2022/02/08 08:59:08;;;;;;;;;19.50;16.25;;;;;10.55;73.81;102402.72;4919671;28;45617;-68
2022/02/08 09:01:34;;;;;;;;;13.75;11.00;;;;;10.55;73.46;102397.47;4920346;28;45647;-65
2022/02/08 09:04:00;;;;;;;;;21.25;16.00;;;;;10.55;73.54;102400.94;4919195;28;45537;-66
2022/02/08 09:06:26;;;;;;;;;17.00;12.00;;;;;10.57;73.14;102400.94;4919942;28;45520;-68
2022/02/08 09:08:52;;;;;;;;;13.50;12.00;;;;;10.59;73.15;102401.81;4919223;28;45423;-73
2022/02/08 09:11:34;;;;;;;;;21.00;18.00;;;;;10.62;72.94;102401.75;4919247;28;45379;-68
2022/02/08 09:29:01;;;;;;;;;15.25;13.75;;;;;10.67;72.36;102399.94;4922851;28;45274;-70
2022/02/08 09:31:26;;;;;;;;;17.50;14.75;;;;;10.63;71.79;102395.63;4920422;28;45311;-68
2022/02/08 09:33:52;;;;;;;;;28.50;22.25;;;;;10.65;72.28;102394.72;4919758;28;45447;-67
2022/02/08 09:36:24;;;;;;;;;25.25;20.50;;;;;10.70;72.59;102402.53;4919992;28;45465;-66
2022/02/08 09:38:53;;;;;;;;;16.75;14.00;;;;;10.72;71.81;102390.25;4918792;28;45417;-65
2022/02/08 09:41:21;;;;;;;;;15.75;15.00;;;;;10.78;72.27;102399.84;4919452;28;45455;-67
2022/02/08 09:43:48;;;;;;;;;18.75;14.75;;;;;10.82;71.53;102406.81;4920374;28;45525;-68
2022/02/08 09:46:16;;;;;;;;;16.50;15.25;;;;;10.85;71.56;102403.25;4918367;28;45883;-66
2022/02/08 09:48:45;;;;;;;;;16.50;13.50;;;;;10.85;71.51;102396.25;4918584;28;45423;-69
2022/02/08 09:51:12;;;;;;;;;22.75;16.50;;;;;10.91;71.08;102405.81;4920056;28;45259;-68
2022/02/08 09:53:42;;;;;;;;;20.00;17.50;;;;;10.93;71.75;102409.28;4919140;28;45447;-66
2022/02/08 09:56:09;;;;;;;;;15.00;13.00;;;;;10.95;71.30;102397.88;4919635;28;46082;-66
2022/02/08 09:58:34;;;;;;;;;18.75;16.50;;;;;10.96;71.48;102396.97;4919736;28;45334;-72
2022/02/08 10:01:10;;;;;;;;;15.25;13.75;;;;;10.99;71.13;102403.94;4919844;28;45386;-70
2022/02/08 10:03:48;;;;;;;;;19.00;16.00;;;;;10.98;70.65;102388.19;4919391;28;45473;-71
2022/02/08 10:06:13;;;;;;;;;18.25;16.75;;;;;11.01;70.45;102394.28;4916639;28;46162;-67
2022/02/08 10:08:39;;;;;;;;;19.00;15.50;;;;;11.07;70.95;102393.34;4917095;28;45451;-73
2022/02/08 10:11:12;;;;;;;;;18.25;14.00;;;;;11.13;70.29;102402.91;4921700;28;45299;-71
2022/02/08 10:14:51;;;;;;;;;16.00;13.75;;;;;11.10;70.83;102388.03;4918830;28;45331;-69
2022/02/08 10:21:48;;;;;;;;;24.00;20.25;;;;;11.43;70.59;102396.34;4921406;28;45415;-67
2022/02/08 10:24:16;;;;;;;;;20.25;17.50;;;;;11.50;69.84;102405.91;4919173;28;45475;-65
2022/02/08 10:29:24;;;;;;;;;17.75;16.25;;;;;11.61;69.57;102402.22;4919279;28;45481;-67
2022/02/08 10:32:16;;;;;;;;;17.25;15.25;;;;;11.64;69.56;102410.97;4917787;28;45311;-66
2022/02/08 10:37:49;;;;;;;;;22.25;18.00;;;;;11.68;69.74;102412.66;4917799;28;45342;-66
2022/02/08 10:40:17;;;;;;;;;16.00;15.00;;;;;11.75;69.60;102407.28;4917782;28;45411;-67
2022/02/08 10:43:03;;;;;;;;;20.25;17.50;;;;;11.82;69.21;102401.91;4917863;28;45228;-66
2022/02/08 10:45:32;;;;;;;;;20.50;19.00;;;;;11.88;69.44;102406.19;4920029;28;45420;-67
2022/02/08 10:48:02;;;;;;;;;16.00;15.50;;;;;11.90;69.03;102390.38;4922772;28;46359;-67
2022/02/08 10:50:30;;;;;;;;;15.00;11.75;;;;;12.02;68.58;102400.75;4922432;28;45284;-71
2022/02/08 10:52:57;;;;;;;;;20.25;19.50;;;;;12.07;68.23;102398.00;4920432;28;45332;-68
2022/02/08 10:58:08;;;;;;;;;18.75;17.25;;;;;12.09;68.03;102399.72;4920719;28;45772;-64
2022/02/08 11:03:10;;;;;;;;;17.00;16.50;;;;;12.12;68.13;102407.59;4921625;28;45319;-66
2022/02/08 11:05:48;;;;;;;;;20.50;18.25;;;;;12.12;68.31;102394.41;4921191;28;45216;-66
2022/02/08 11:08:34;;;;;;;;;18.75;16.75;;;;;12.20;68.15;102393.41;4920480;28;46222;-66
2022/02/08 11:12:04;;;;;;;;;21.00;15.25;;;;;12.29;68.45;102403.78;4920987;28;45274;-66
2022/02/08 11:14:27;;;;;;;;;15.50;14.25;;;;;12.33;67.81;102389.63;4914947;28;45498;-65
2022/02/08 11:19:45;;;;;;;;;22.00;19.50;;;;;12.46;67.64;102389.41;4920498;28;45428;-71
2022/02/08 11:22:27;;;;;;;;;13.25;10.25;;;;;12.52;67.43;102381.38;4920425;28;45391;-66
2022/02/08 11:25:15;;;;;;;;;16.00;13.50;;;;;12.59;67.18;102376.84;4920467;28;45223;-70
2022/02/08 11:27:49;;;;;;;;;19.00;14.75;;;;;12.65;67.28;102377.56;4921118;28;45505;-68
2022/02/08 11:30:29;;;;;;;;;26.00;24.50;;;;;12.64;67.22;102369.69;4920693;28;45415;-68
2022/02/08 11:33:12;;;;;;;;;25.25;22.25;;;;;12.68;66.84;102382.78;4920561;28;45271;-67
2022/02/08 11:49:31;;;;;;;;;16.50;15.25;;;;;12.82;66.75;102344.69;4920919;28;45343;-67
2022/02/08 11:55:39;;;;;;;;;18.75;17.00;;;;;12.92;66.25;102351.53;4920619;28;45804;-70
2022/02/08 11:58:10;;;;;;;;;18.75;17.50;;;;;12.92;65.95;102350.63;4920272;28;45419;-66
2022/02/08 12:00:40;;;;;;;;;25.50;19.25;;;;;12.90;66.42;102333.94;4920361;28;45530;-66
2022/02/08 12:08:16;;;;;;;;;29.25;28.50;;;;;12.93;66.20;102321.56;4922072;28;45351;-71
2022/02/08 12:10:58;;;;;;;;;14.00;10.50;;;;;12.98;66.09;102316.16;4918486;28;45538;-72
2022/02/08 12:13:58;;;;;;;;;18.75;18.50;;;;;13.10;65.73;102320.31;4919325;28;46193;-70
2022/02/08 13:00:18;;;;;;;;;8.00;7.75;;;;;12.93;64.62;102284.59;4920226;28;45313;-72
2022/02/08 14:01:37;;;;;;;;;10.75;9.50;;;;;13.20;63.85;102239.91;4921997;28;45306;-68
2022/02/08 14:03:46;;;;;;;;;12.00;10.25;;;;;13.03;63.55;102237.66;4921283;28;45413;-66
2022/02/08 14:29:49;;;;;;;;;9.25;7.00;;;;;12.82;64.36;102229.34;4921270;28;45228;-67
2022/02/08 14:32:21;;;;;;;;;11.25;8.50;;;;;12.77;64.92;102228.59;4921715;28;45200;-67
2022/02/08 15:09:53;;;;;;;;;10.00;8.75;;;;;12.70;65.52;102216.44;4925390;28;45275;-76
2022/02/08 15:12:20;;;;;;;;;19.00;13.75;;;;;12.65;65.25;102219.16;4924183;28;45331;-75
2022/02/08 15:14:53;;;;;;;;;13.50;12.00;;;;;12.63;65.60;102222.75;4923022;28;45344;-73
2022/02/08 15:17:19;;;;;;;;;9.50;9.50;;;;;12.59;65.42;102216.66;4921457;28;46514;-74
2022/02/08 15:19:47;;;;;;;;;12.50;9.00;;;;;12.53;65.62;102217.69;4922123;28;45288;-73
2022/02/08 15:22:14;;;;;;;;;10.00;9.25;;;;;12.50;65.96;102224.78;4922029;28;45291;-74
2022/02/08 15:24:41;;;;;;;;;9.25;9.25;;;;;12.42;65.89;102224.97;4921722;28;45585;-75
2022/02/08 15:27:09;;;;;;;;;9.50;9.50;;;;;12.35;66.32;102220.75;4922048;28;45440;-73
2022/02/08 15:29:35;;;;;;;;;9.50;9.50;;;;;12.32;66.08;102221.66;4920256;28;45288;-72
2022/02/08 15:32:01;;;;;;;;;10.50;10.00;;;;;12.24;66.71;102226.22;4920476;28;45308;-73
2022/02/08 15:34:27;;;;;;;;;12.75;9.75;;;;;12.25;66.76;102215.66;4920679;28;45208;-70
2022/02/08 15:36:55;;;;;;;;;13.00;10.00;;;;;12.27;66.46;102228.81;4920133;28;45986;-69
2022/02/08 15:39:20;;;;;;;;;14.00;11.75;;;;;12.25;66.90;102223.56;4920254;28;45460;-66
2022/02/08 15:41:46;;;;;;;;;8.00;8.00;;;;;12.26;66.83;102225.31;4919200;28;45531;-72
2022/02/08 15:44:16;;;;;;;;;13.50;12.00;;;;;12.25;66.95;102223.56;4920482;28;45583;-68
2022/02/08 15:46:42;;;;;;;;;12.25;10.50;;;;;12.24;66.89;102224.47;4920578;28;46594;-73
2022/02/08 15:49:07;;;;;;;;;15.00;13.00;;;;;12.25;66.95;102214.78;4920741;28;45433;-70
2022/02/08 15:51:45;;;;;;;;;12.00;10.75;;;;;12.18;66.82;102206.09;4923286;28;45345;-75
2022/02/08 15:54:22;;;;;;;;;17.50;13.75;;;;;12.19;66.77;102215.75;4920072;28;45403;-69
2022/02/08 16:07:14;;;;;;;;;13.00;11.50;;;;;12.10;66.88;102211.56;4923156;28;45248;-72
2022/02/08 16:14:58;;;;;;;;;12.00;10.00;;;;;11.99;67.26;102205.59;4922690;28;45543;-70
2022/02/08 16:17:44;;;;;;;;;9.00;9.00;;;;;11.96;67.21;102209.16;4919811;28;45390;-72
2022/02/08 16:20:31;;;;;;;;;7.00;5.50;;;;;11.93;67.36;102209.22;4919746;28;45402;-68
2022/02/08 16:58:22;;;;;;;;;15.50;12.50;;;;;11.59;68.63;102214.25;4919627;28;45275;-72
2022/02/08 17:00:49;;;;;;;;;16.00;12.00;;;;;11.58;69.22;102228.31;4918753;28;46789;-72
2022/02/08 17:03:21;;;;;;;;;10.25;9.25;;;;;11.59;69.59;102219.53;4918695;28;45243;-73
2022/02/08 17:05:46;;;;;;;;;14.25;12.00;;;;;11.60;69.78;102227.41;4919016;28;45442;-70
2022/02/08 17:08:13;;;;;;;;;12.75;11.00;;;;;11.60;69.67;102223.91;4919626;28;45418;-72
2022/02/08 17:10:43;;;;;;;;;9.25;8.25;;;;;11.59;69.55;102220.41;4919181;28;46453;-73
2022/02/08 17:47:44;;;;;;;;;11.50;11.25;;;;;11.37;70.07;102222.53;4920163;28;45465;-73
2022/02/08 17:50:13;;;;;;;;;16.00;11.75;;;;;11.34;70.23;102226.13;4919073;28;45519;-75
2022/02/08 17:52:40;;;;;;;;;13.00;9.75;;;;;11.28;70.78;102222.69;4922919;28;45353;-74
2022/02/08 17:55:06;;;;;;;;;13.25;13.00;;;;;11.28;70.76;102228.84;4920765;28;45189;-75
2022/02/08 17:57:32;;;;;;;;;15.75;14.50;;;;;11.25;71.27;102235.03;4918106;28;45366;-74
2022/02/08 17:59:57;;;;;;;;;15.50;14.75;;;;;11.22;71.28;102229.81;4918852;28;45578;-74
2022/02/08 18:02:24;;;;;;;;;19.50;14.25;;;;;11.25;71.50;102239.44;4918884;28;45782;-72
2022/02/08 18:04:50;;;;;;;;;17.75;16.25;;;;;11.28;71.62;102236.75;4918864;28;45381;-73
2022/02/08 18:07:19;;;;;;;;;19.25;16.00;;;;;11.27;71.60;102242.03;4921379;28;45251;-74
2022/02/08 18:09:47;;;;;;;;;14.75;13.75;;;;;11.24;71.60;102240.34;4918215;28;45293;-73
2022/02/08 18:12:12;;;;;;;;;14.00;13.50;;;;;11.22;72.00;102239.50;4917860;28;45366;-75
2022/02/08 18:14:40;;;;;;;;;14.00;13.25;;;;;11.22;71.38;102232.44;4917968;28;45351;-74
2022/02/08 18:17:13;;;;;;;;;19.25;15.00;;;;;11.20;72.33;102228.09;4918083;28;45497;-73
2022/02/08 18:19:42;;;;;;;;;15.50;13.25;;;;;11.21;71.57;102232.47;4918067;28;45225;-75
2022/02/08 18:22:25;;;;;;;;;16.00;13.00;;;;;11.21;71.55;102233.34;4917555;28;46225;-69
2022/02/08 18:27:29;;;;;;;;;15.75;15.75;;;;;11.01;71.82;102207.31;4920612;28;45306;-67
2022/02/08 19:20:38;;;;;;;;;19.75;19.00;;;;;11.01;72.69;102238.06;4920650;28;45375;-73